createdAt,value
2023-05-09T00:02:08.228Z,7.40
2023-05-09T00:04:35.449Z,7.27
2023-05-09T00:07:02.606Z,7.53
2023-05-09T00:09:29.369Z,7.43
2023-05-09T00:11:56.268Z,6.97
2023-05-09T00:14:24.886Z,7.20
2023-05-09T00:16:51.854Z,6.83
2023-05-09T00:19:18.584Z,7.23
2023-05-09T00:21:46.724Z,6.63
2023-05-09T00:24:13.409Z,7.37
2023-05-09T00:26:40.377Z,7.50
2023-05-09T00:29:07.082Z,8.03
2023-05-09T00:31:33.880Z,8.20
2023-05-09T00:34:00.712Z,7.67
2023-05-09T00:36:27.416Z,7.47
2023-05-09T00:38:54.140Z,8.07
2023-05-09T00:41:21.597Z,8.17
2023-05-09T00:43:48.316Z,7.83
2023-05-09T00:46:15.157Z,7.53
2023-05-09T00:48:42.053Z,7.73
2023-05-09T00:51:08.740Z,7.67
2023-05-09T00:53:35.699Z,8.00
2023-05-09T00:56:02.437Z,9.00
2023-05-09T00:58:30.060Z,9.43
2023-05-09T01:00:56.831Z,8.20
2023-05-09T01:03:23.780Z,9.07
2023-05-09T01:06:03.217Z,8.87
2023-05-09T01:08:51.478Z,8.60
2023-05-09T01:11:41.021Z,7.87
2023-05-09T01:14:26.723Z,8.10
2023-05-09T01:17:05.593Z,8.03
2023-05-09T01:19:32.226Z,8.03
2023-05-09T01:22:02.128Z,8.00
2023-05-09T01:24:48.037Z,7.90
2023-05-09T01:27:33.253Z,8.87
2023-05-09T01:30:03.525Z,9.23
2023-05-09T01:32:34.921Z,8.77
2023-05-09T01:35:04.268Z,8.80
2023-05-09T01:37:33.860Z,9.00
2023-05-09T01:40:07.224Z,7.77
2023-05-09T01:42:44.765Z,8.17
2023-05-09T01:45:13.976Z,7.63
2023-05-09T01:47:41.788Z,8.53
2023-05-09T01:50:11.809Z,7.13
2023-05-09T01:52:41.041Z,7.00
2023-05-09T01:55:08.909Z,7.13
2023-05-09T01:57:37.395Z,7.77
2023-05-09T02:00:07.980Z,7.90
2023-05-09T02:02:35.832Z,7.30
2023-05-09T02:05:03.312Z,7.50
2023-05-09T02:07:31.224Z,7.50
2023-05-09T02:09:59.135Z,7.00
2023-05-09T02:12:26.207Z,7.83
2023-05-09T02:14:52.978Z,8.53
2023-05-09T02:17:19.893Z,6.90
2023-05-09T02:19:46.582Z,6.70
2023-05-09T02:22:14.817Z,7.40
2023-05-09T02:24:44.739Z,8.30
2023-05-09T02:27:12.591Z,7.30
2023-05-09T02:29:44.450Z,7.47
2023-05-09T02:32:32.039Z,7.30
2023-05-09T02:35:00.978Z,7.77
2023-05-09T02:37:28.536Z,7.23
2023-05-09T02:39:55.927Z,8.07
2023-05-09T02:42:28.762Z,7.50
2023-05-09T02:44:56.366Z,7.63
2023-05-09T02:47:23.185Z,7.30
2023-05-09T02:49:50.004Z,8.47
2023-05-09T02:52:16.873Z,7.83
2023-05-09T02:54:43.567Z,8.00
2023-05-09T02:57:10.429Z,8.00
2023-05-09T02:59:37.735Z,7.97
2023-05-09T03:02:05.112Z,8.00
2023-05-09T03:04:31.805Z,7.13
2023-05-09T03:06:58.643Z,9.37
2023-05-09T03:09:25.459Z,9.70
2023-05-09T03:11:52.159Z,8.80
2023-05-09T03:14:18.867Z,8.77
2023-05-09T03:16:45.621Z,8.33
2023-05-09T03:19:12.387Z,8.57
2023-05-09T03:21:39.576Z,8.37
2023-05-09T03:24:07.772Z,10.87
2023-05-09T03:26:37.564Z,9.13
2023-05-09T03:29:04.651Z,9.00
2023-05-09T03:31:31.899Z,9.57
2023-05-09T03:33:58.709Z,8.20
2023-05-09T03:36:25.483Z,8.93
2023-05-09T03:38:52.596Z,8.30
2023-05-09T03:41:19.359Z,8.57
2023-05-09T03:43:46.346Z,10.03
2023-05-09T03:46:13.071Z,9.20
2023-05-09T03:48:39.793Z,8.23
2023-05-09T03:51:06.693Z,7.97
2023-05-09T03:53:33.593Z,7.90
2023-05-09T03:56:00.378Z,9.30
2023-05-09T03:58:27.229Z,9.20
2023-05-09T04:00:54.276Z,7.93
2023-05-09T04:03:21.185Z,7.50
2023-05-09T04:05:48.044Z,8.60
2023-05-09T04:08:14.742Z,9.73
2023-05-09T04:10:41.497Z,8.47
2023-05-09T04:13:08.378Z,8.83
2023-05-09T04:15:35.181Z,10.10
2023-05-09T04:18:02.044Z,8.43
2023-05-09T04:20:28.937Z,8.60
2023-05-09T04:22:55.654Z,8.40
2023-05-09T04:25:22.496Z,8.30
2023-05-09T04:27:49.262Z,8.73
2023-05-09T04:30:16.354Z,8.10
2023-05-09T04:32:46.050Z,8.37
2023-05-09T04:35:14.223Z,8.73
2023-05-09T04:37:41.852Z,8.83
2023-05-09T04:40:10.404Z,8.97
2023-05-09T04:42:37.566Z,11.07
2023-05-09T04:45:05.615Z,9.23
2023-05-09T04:47:32.732Z,9.03
2023-05-09T04:49:59.449Z,9.37
2023-05-09T04:52:26.343Z,9.27
2023-05-09T04:54:53.216Z,13.73
2023-05-09T04:57:20.644Z,9.77
2023-05-09T04:59:47.418Z,8.43
2023-05-09T05:02:14.286Z,8.67
2023-05-09T05:04:41.150Z,10.63
2023-05-09T05:07:08.103Z,11.50
2023-05-09T05:09:34.808Z,10.37
2023-05-09T05:12:03.654Z,9.07
2023-05-09T05:14:31.640Z,8.27
2023-05-09T05:16:58.363Z,8.87
2023-05-09T05:19:25.250Z,8.07
2023-05-09T05:21:52.069Z,10.07
2023-05-09T05:24:18.837Z,7.90
2023-05-09T05:26:45.678Z,8.43
2023-05-09T05:29:12.391Z,9.97
2023-05-09T05:31:39.340Z,9.60
2023-05-09T05:34:06.510Z,8.33
2023-05-09T05:36:33.429Z,8.43
2023-05-09T05:39:00.176Z,8.23
2023-05-09T05:41:27.142Z,7.90
2023-05-09T05:43:54.589Z,9.40
2023-05-09T05:46:21.535Z,8.17
2023-05-09T05:48:48.596Z,8.50
2023-05-09T05:51:15.541Z,8.73
2023-05-09T05:53:42.833Z,7.83
2023-05-09T05:56:09.652Z,9.67
2023-05-09T05:58:36.512Z,8.17
2023-05-09T06:01:03.322Z,8.13
2023-05-09T06:03:30.077Z,9.63
2023-05-09T06:05:56.934Z,9.00
2023-05-09T06:08:23.708Z,8.45
2023-05-09T06:10:50.485Z,9.20
2023-05-09T06:13:17.327Z,8.60
2023-05-09T06:15:44.158Z,8.40
2023-05-09T06:18:11.100Z,8.93
2023-05-09T06:20:37.972Z,9.20
2023-05-09T06:23:04.663Z,14.32
2023-05-09T06:25:31.360Z,8.77
2023-05-09T06:27:58.333Z,9.63
2023-05-09T06:30:26.954Z,9.13
2023-05-09T06:32:54.965Z,8.13
2023-05-09T06:35:21.958Z,8.07
2023-05-09T06:37:49.149Z,8.50
2023-05-09T06:40:17.032Z,8.05
2023-05-09T06:42:44.321Z,7.50
2023-05-09T06:45:11.717Z,8.15
2023-05-09T06:47:38.592Z,8.63
2023-05-09T06:50:05.875Z,8.63
2023-05-09T06:52:32.588Z,8.88
2023-05-09T06:54:59.287Z,8.18
2023-05-09T06:57:26.050Z,7.88
2023-05-09T06:59:52.862Z,10.38
2023-05-09T07:02:19.682Z,8.93
2023-05-09T07:04:46.469Z,7.97
2023-05-09T07:07:13.240Z,9.15
2023-05-09T07:09:39.926Z,8.60
2023-05-09T07:12:06.795Z,7.78
2023-05-09T07:14:33.502Z,7.68
2023-05-09T07:17:13.738Z,7.57
2023-05-09T07:19:45.382Z,7.63
2023-05-09T07:22:13.588Z,7.15
2023-05-09T07:24:41.757Z,6.68
2023-05-09T07:27:08.525Z,6.78
2023-05-09T07:29:35.387Z,6.95
2023-05-09T07:32:02.564Z,6.38
2023-05-09T07:34:29.301Z,7.05
2023-05-09T07:36:56.044Z,5.93
2023-05-09T07:39:22.728Z,6.38
2023-05-09T07:41:49.470Z,8.77
2023-05-09T07:44:16.297Z,5.95
2023-05-09T07:46:43.086Z,5.57
2023-05-09T07:49:09.929Z,5.90
2023-05-09T07:51:36.719Z,6.13
2023-05-09T07:54:03.732Z,5.82
2023-05-09T07:56:33.378Z,6.57
2023-05-09T07:59:00.114Z,5.78
2023-05-09T08:01:26.829Z,5.35
2023-05-09T08:03:53.695Z,5.80
2023-05-09T08:06:21.687Z,7.72
2023-05-09T08:08:48.467Z,5.95
2023-05-09T08:11:15.220Z,6.60
2023-05-09T08:13:41.916Z,6.25
2023-05-09T08:16:08.638Z,6.40
2023-05-09T08:18:37.526Z,5.43
2023-05-09T08:21:04.328Z,6.07
2023-05-09T08:23:31.135Z,6.63
2023-05-09T08:25:59.119Z,6.50
2023-05-09T08:28:28.616Z,5.70
2023-05-09T08:30:56.841Z,8.02
2023-05-09T08:33:24.154Z,5.50
2023-05-09T08:35:51.940Z,5.30
2023-05-09T08:38:19.068Z,5.00
2023-05-09T08:40:46.248Z,6.63
2023-05-09T08:43:14.125Z,6.30
2023-05-09T08:45:47.534Z,5.88
2023-05-09T08:48:17.029Z,6.85
2023-05-09T08:50:44.502Z,5.45
2023-05-09T08:53:12.411Z,5.00
2023-05-09T08:55:39.573Z,5.13
2023-05-09T08:58:07.314Z,7.25
2023-05-09T09:00:34.536Z,4.70
2023-05-09T09:03:04.158Z,4.75
2023-05-09T09:05:41.365Z,4.90
2023-05-09T09:08:10.896Z,4.65
2023-05-09T09:10:47.176Z,5.28
2023-05-09T09:13:15.298Z,4.93
2023-05-09T09:15:45.185Z,5.78
2023-05-09T09:18:16.193Z,4.80
2023-05-09T09:20:49.926Z,4.90
2023-05-09T09:23:24.298Z,6.00
2023-05-09T09:25:59.650Z,4.68
2023-05-09T09:28:27.162Z,6.78
2023-05-09T09:30:54.243Z,3.95
2023-05-09T09:33:21.960Z,5.18
2023-05-09T09:35:50.180Z,4.55
2023-05-09T09:38:21.309Z,4.93
2023-05-09T09:40:58.274Z,5.28
2023-05-09T09:43:29.252Z,4.30
2023-05-09T09:45:57.219Z,3.67
2023-05-09T09:48:25.893Z,4.07
2023-05-09T09:50:56.690Z,3.85
2023-05-09T09:53:24.024Z,4.57
2023-05-09T09:55:52.050Z,3.88
2023-05-09T09:58:21.959Z,3.42
2023-05-09T10:01:07.944Z,5.22
2023-05-09T10:03:38.630Z,3.78
2023-05-09T10:06:06.334Z,5.15
2023-05-09T10:08:33.500Z,4.30
2023-05-09T10:11:00.706Z,3.70
2023-05-09T10:13:28.968Z,3.60
2023-05-09T10:15:58.140Z,5.82
2023-05-09T10:18:27.997Z,3.28
2023-05-09T10:20:55.354Z,4.40
2023-05-09T10:23:23.946Z,5.60
2023-05-09T10:26:11.336Z,3.50
2023-05-09T10:28:39.854Z,5.68
2023-05-09T10:31:09.943Z,5.60
2023-05-09T10:33:47.277Z,4.13
2023-05-09T10:36:16.787Z,3.42
2023-05-09T10:38:44.147Z,4.85
2023-05-09T10:41:12.285Z,6.72
2023-05-09T10:43:39.540Z,3.08
2023-05-09T10:46:07.078Z,4.47
2023-05-09T10:48:35.039Z,4.63
2023-05-09T10:51:02.520Z,3.28
2023-05-09T10:53:43.769Z,4.68
2023-05-09T10:56:22.640Z,4.47
2023-05-09T10:58:49.709Z,3.33
2023-05-09T11:01:28.695Z,4.43
2023-05-09T11:03:56.959Z,3.70
2023-05-09T11:06:46.290Z,3.67
2023-05-09T11:09:35.866Z,3.95
2023-05-09T11:12:06.333Z,5.05
2023-05-09T11:14:34.559Z,4.88
2023-05-09T11:17:04.176Z,3.72
2023-05-09T11:19:38.589Z,5.18
2023-05-09T11:22:12.297Z,3.83
2023-05-09T11:24:39.467Z,3.47
2023-05-09T11:27:15.011Z,3.55
2023-05-09T11:30:00.416Z,3.40
2023-05-09T11:32:34.382Z,3.30
2023-05-09T11:35:07.646Z,4.40
2023-05-09T11:37:34.845Z,5.35
2023-05-09T11:40:04.878Z,4.13
2023-05-09T11:42:32.628Z,2.63
2023-05-09T11:44:59.564Z,3.53
2023-05-09T11:47:28.900Z,4.18
2023-05-09T11:49:56.002Z,3.95
2023-05-09T11:52:22.673Z,3.92
2023-05-09T11:54:50.287Z,3.15
2023-05-09T11:57:17.935Z,5.80
2023-05-09T11:59:45.616Z,2.65
2023-05-09T12:02:12.869Z,2.42
2023-05-09T12:04:40.039Z,2.90
2023-05-09T12:07:06.931Z,5.10
2023-05-09T12:09:34.755Z,2.83
2023-05-09T12:12:01.743Z,2.65
2023-05-09T12:14:32.499Z,4.97
2023-05-09T12:16:59.255Z,2.70
2023-05-09T12:19:27.506Z,3.17
2023-05-09T12:22:01.860Z,3.17
2023-05-09T12:24:29.741Z,2.40
2023-05-09T12:26:57.365Z,3.47
2023-05-09T12:29:25.091Z,2.03
2023-05-09T12:31:55.995Z,3.05
2023-05-09T12:34:23.179Z,3.28
2023-05-09T12:36:53.652Z,4.57
2023-05-09T12:39:22.995Z,2.40
2023-05-09T12:42:01.019Z,2.05
2023-05-09T12:44:29.903Z,3.65
2023-05-09T12:46:58.167Z,3.45
2023-05-09T12:49:25.722Z,2.50
2023-05-09T12:51:53.613Z,3.25
2023-05-09T12:54:24.436Z,3.47
2023-05-09T12:56:52.680Z,2.17
2023-05-09T12:59:29.111Z,5.25
2023-05-09T13:02:00.543Z,2.55
2023-05-09T13:04:28.940Z,3.33
2023-05-09T13:07:00.249Z,3.83
2023-05-09T13:09:27.913Z,2.45
2023-05-09T13:11:55.121Z,2.10
2023-05-09T13:14:23.205Z,4.07
2023-05-09T13:16:50.380Z,3.90
2023-05-09T13:19:17.536Z,5.10
2023-05-09T13:21:44.644Z,3.22
2023-05-09T13:24:11.734Z,4.38
2023-05-09T13:26:38.808Z,2.33
2023-05-09T13:29:05.885Z,3.65
2023-05-09T13:31:33.022Z,4.38
2023-05-09T13:34:00.217Z,2.22
2023-05-09T13:36:27.573Z,6.68
2023-05-09T13:38:54.680Z,4.68
2023-05-09T13:41:23.626Z,4.32
2023-05-09T13:43:50.911Z,6.47
2023-05-09T13:46:18.169Z,3.28
2023-05-09T13:48:45.432Z,2.75
2023-05-09T13:51:12.600Z,4.45
2023-05-09T13:53:39.702Z,2.85
2023-05-09T13:56:09.698Z,3.05
2023-05-09T13:58:37.164Z,4.90
2023-05-09T14:01:04.355Z,6.43
2023-05-09T14:03:31.923Z,4.47
2023-05-09T14:05:59.704Z,4.38
2023-05-09T14:08:26.986Z,4.88
2023-05-09T14:10:54.720Z,3.25
2023-05-09T14:13:21.978Z,4.45
2023-05-09T14:15:49.301Z,3.10
2023-05-09T14:18:20.140Z,4.97
2023-05-09T14:20:48.187Z,4.43
2023-05-09T14:23:15.287Z,4.97
2023-05-09T14:25:42.424Z,4.43
2023-05-09T14:28:09.723Z,3.53
2023-05-09T14:30:37.560Z,3.22
2023-05-09T14:33:04.715Z,4.57
2023-05-09T14:35:34.106Z,2.55
2023-05-09T14:38:01.625Z,4.93
2023-05-09T14:40:31.900Z,2.65
2023-05-09T14:43:02.203Z,2.70
2023-05-09T14:45:29.941Z,4.32
2023-05-09T14:47:57.192Z,4.20
2023-05-09T14:50:23.920Z,2.75
2023-05-09T14:52:51.110Z,4.68
2023-05-09T14:55:23.036Z,2.75
2023-05-09T14:57:49.964Z,5.03
2023-05-09T15:00:21.659Z,4.63
2023-05-09T15:02:50.504Z,3.97
2023-05-09T15:05:17.825Z,9.40
2023-05-09T15:07:44.592Z,2.85
2023-05-09T15:10:11.519Z,5.57
2023-05-09T15:12:38.186Z,2.20
2023-05-09T15:15:18.728Z,4.57
2023-05-09T15:17:45.967Z,4.72
2023-05-09T15:20:18.313Z,7.15
2023-05-09T15:22:49.768Z,3.50
2023-05-09T15:25:16.931Z,2.22
2023-05-09T15:27:43.653Z,3.80
2023-05-09T15:30:11.043Z,3.60
2023-05-09T15:32:39.833Z,6.95
2023-05-09T15:35:07.319Z,4.53
2023-05-09T15:37:35.754Z,1.48
2023-05-09T15:40:02.749Z,2.83
2023-05-09T15:42:29.915Z,2.78
2023-05-09T15:44:57.192Z,3.67
2023-05-09T15:47:23.880Z,4.13
2023-05-09T15:49:52.655Z,3.63
2023-05-09T15:52:21.660Z,3.90
2023-05-09T15:54:48.621Z,2.40
2023-05-09T15:57:16.739Z,4.80
2023-05-09T15:59:43.404Z,2.65
2023-05-09T16:02:10.806Z,3.15
2023-05-09T16:04:38.697Z,1.77
2023-05-09T16:07:05.397Z,2.53
2023-05-09T16:09:32.829Z,2.13
2023-05-09T16:11:59.667Z,2.95
2023-05-09T16:14:26.454Z,1.42
2023-05-09T16:16:53.853Z,2.42
2023-05-09T16:19:21.673Z,2.80
2023-05-09T16:21:50.668Z,1.50
2023-05-09T16:24:17.485Z,2.45
2023-05-09T16:26:44.142Z,4.40
2023-05-09T16:29:12.698Z,6.60
2023-05-09T16:31:39.462Z,5.00
2023-05-09T16:34:06.583Z,2.78
2023-05-09T16:36:33.941Z,2.60
2023-05-09T16:39:00.607Z,3.20
2023-05-09T16:41:27.431Z,4.20
2023-05-09T16:43:54.190Z,4.70
2023-05-09T16:46:20.953Z,2.97
2023-05-09T16:48:48.070Z,2.65
2023-05-09T16:51:15.176Z,1.77
2023-05-09T16:53:42.397Z,2.03
2023-05-09T16:56:11.099Z,2.00
2023-05-09T16:58:38.222Z,5.43
2023-05-09T17:01:05.598Z,4.68
2023-05-09T17:03:32.841Z,1.45
2023-05-09T17:05:59.950Z,4.20
2023-05-09T17:08:27.038Z,1.65
2023-05-09T17:10:54.163Z,2.65
2023-05-09T17:13:21.354Z,4.05
2023-05-09T17:15:48.506Z,4.90
2023-05-09T17:18:22.061Z,2.63
2023-05-09T17:20:56.732Z,2.28
2023-05-09T17:23:25.051Z,2.75
2023-05-09T17:25:52.302Z,2.88
2023-05-09T17:28:19.400Z,4.75
2023-05-09T17:30:46.679Z,4.00
2023-05-09T17:33:13.779Z,2.13
2023-05-09T17:35:40.910Z,3.15
2023-05-09T17:38:08.077Z,5.55
2023-05-09T17:40:35.174Z,3.15
2023-05-09T17:43:01.848Z,4.55
2023-05-09T17:45:28.749Z,4.18
2023-05-09T17:47:55.687Z,3.03
2023-05-09T17:50:22.831Z,3.90
2023-05-09T17:52:49.901Z,4.60
2023-05-09T17:55:16.676Z,5.15
2023-05-09T17:57:43.435Z,3.08
2023-05-09T18:00:10.711Z,2.20
2023-05-09T18:02:37.444Z,2.75
2023-05-09T18:05:04.829Z,4.18
2023-05-09T18:07:33.775Z,3.20
2023-05-09T18:10:00.974Z,3.83
2023-05-09T18:12:29.184Z,3.08
2023-05-09T18:14:56.500Z,5.45
2023-05-09T18:17:23.621Z,1.83
2023-05-09T18:19:50.775Z,2.47
2023-05-09T18:22:19.337Z,3.42
2023-05-09T18:24:46.114Z,2.40
2023-05-09T18:27:12.915Z,1.95
2023-05-09T18:29:39.699Z,5.03
2023-05-09T18:32:10.300Z,2.40
2023-05-09T18:34:37.482Z,3.22
2023-05-09T18:37:06.043Z,4.97
2023-05-09T18:39:32.728Z,4.00
2023-05-09T18:41:59.368Z,6.15
2023-05-09T18:44:26.066Z,5.32
2023-05-09T18:46:53.847Z,2.53
2023-05-09T18:49:20.654Z,3.70
2023-05-09T18:51:47.398Z,5.80
2023-05-09T18:54:14.210Z,2.97
2023-05-09T18:56:42.332Z,3.35
2023-05-09T18:59:11.960Z,7.35
2023-05-09T19:01:38.928Z,8.50
2023-05-09T19:04:06.864Z,3.22
2023-05-09T19:06:33.728Z,5.47
2023-05-09T19:09:02.097Z,4.75
2023-05-09T19:11:28.978Z,6.22
2023-05-09T19:13:55.699Z,5.05
2023-05-09T19:16:24.752Z,4.05
2023-05-09T19:18:51.474Z,2.88
2023-05-09T19:21:18.853Z,4.38
2023-05-09T19:23:49.058Z,3.63
2023-05-09T19:26:19.565Z,4.15
2023-05-09T19:28:47.068Z,4.07
2023-05-09T19:31:15.162Z,7.63
2023-05-09T19:33:45.281Z,3.28
2023-05-09T19:36:12.032Z,2.88
2023-05-09T19:38:38.811Z,5.35
2023-05-09T19:41:05.561Z,9.05
2023-05-09T19:43:32.444Z,4.75
2023-05-09T19:45:59.967Z,6.40
2023-05-09T19:48:26.756Z,6.32
2023-05-09T19:50:58.594Z,11.35
2023-05-09T19:53:25.316Z,7.68
2023-05-09T19:55:52.437Z,3.65
2023-05-09T19:58:19.682Z,5.95
2023-05-09T20:00:46.505Z,5.57
2023-05-09T20:03:13.338Z,4.63
2023-05-09T20:05:40.295Z,6.10
2023-05-09T20:08:06.998Z,3.70
2023-05-09T20:10:34.206Z,4.20
2023-05-09T20:13:01.228Z,8.88
2023-05-09T20:15:28.048Z,6.15
2023-05-09T20:17:54.821Z,10.07
2023-05-09T20:20:21.604Z,10.88
2023-05-09T20:22:48.368Z,6.88
2023-05-09T20:25:15.382Z,7.43
2023-05-09T20:27:42.088Z,9.60
2023-05-09T20:30:09.258Z,8.77
2023-05-09T20:32:35.993Z,5.50
2023-05-09T20:35:03.080Z,6.32
2023-05-09T20:37:29.953Z,13.38
2023-05-09T20:39:56.701Z,8.07
2023-05-09T20:42:23.625Z,7.18
2023-05-09T20:44:51.553Z,7.97
2023-05-09T20:47:18.449Z,7.25
2023-05-09T20:49:45.125Z,3.95
2023-05-09T20:52:11.884Z,5.35
2023-05-09T20:54:38.639Z,3.42
2023-05-09T20:57:05.320Z,5.25
2023-05-09T20:59:32.042Z,3.40
2023-05-09T21:01:58.756Z,5.35
2023-05-09T21:04:25.687Z,7.80
2023-05-09T21:06:52.345Z,4.38
2023-05-09T21:09:19.012Z,2.92
2023-05-09T21:11:46.092Z,3.60
2023-05-09T21:14:12.822Z,4.32
2023-05-09T21:16:39.552Z,3.08
2023-05-09T21:19:06.877Z,4.32
2023-05-09T21:21:33.583Z,5.10
2023-05-09T21:24:04.168Z,3.78
2023-05-09T21:26:30.876Z,4.80
2023-05-09T21:28:57.572Z,5.72
2023-05-09T21:31:24.303Z,5.78
2023-05-09T21:33:52.014Z,7.82
2023-05-09T21:36:18.720Z,10.23
2023-05-09T21:38:45.478Z,5.68
2023-05-09T21:41:12.148Z,5.32
2023-05-09T21:43:38.957Z,5.15
2023-05-09T21:46:06.096Z,5.43
2023-05-09T21:48:33.062Z,5.97
2023-05-09T21:51:03.628Z,6.85
2023-05-09T21:53:30.423Z,6.82
2023-05-09T21:55:57.103Z,5.18
2023-05-09T21:58:23.732Z,5.03
2023-05-09T22:00:50.453Z,4.57
2023-05-09T22:03:17.224Z,5.97
2023-05-09T22:05:44.048Z,6.47
2023-05-09T22:08:10.873Z,7.27
2023-05-09T22:10:37.789Z,7.27
2023-05-09T22:13:04.688Z,7.50
2023-05-09T22:15:31.536Z,8.27
2023-05-09T22:17:58.277Z,5.80
2023-05-09T22:20:25.135Z,6.00
2023-05-09T22:22:51.817Z,6.60
2023-05-09T22:25:18.664Z,5.40
2023-05-09T22:27:45.371Z,6.20
2023-05-09T22:30:12.492Z,7.93
2023-05-09T22:32:40.225Z,6.23
2023-05-09T22:35:07.366Z,6.73
2023-05-09T22:37:34.121Z,5.73
2023-05-09T22:40:01.483Z,6.83
2023-05-09T22:42:29.386Z,7.63
2023-05-09T22:44:56.153Z,7.27
2023-05-09T22:47:23.100Z,6.07
2023-05-09T22:49:50.393Z,5.73
2023-05-09T22:52:17.426Z,6.30
2023-05-09T22:54:44.202Z,5.97
2023-05-09T22:57:11.442Z,8.33
2023-05-09T22:59:38.378Z,5.20
2023-05-09T23:02:05.411Z,6.90
2023-05-09T23:04:32.078Z,5.97
2023-05-09T23:06:58.799Z,9.33
2023-05-09T23:09:25.506Z,7.27
2023-05-09T23:11:52.174Z,6.03
2023-05-09T23:14:18.883Z,8.27
2023-05-09T23:16:45.554Z,11.70
2023-05-09T23:19:12.227Z,9.47
2023-05-09T23:21:38.887Z,8.43
2023-05-09T23:24:06.149Z,8.90
2023-05-09T23:26:33.183Z,7.37
2023-05-09T23:28:59.874Z,7.83
2023-05-09T23:31:26.657Z,8.10
2023-05-09T23:33:53.317Z,9.10
2023-05-09T23:36:19.980Z,9.00
2023-05-09T23:38:46.657Z,9.30
2023-05-09T23:41:13.592Z,10.23
2023-05-09T23:43:40.317Z,10.90
2023-05-09T23:46:07.029Z,10.50
2023-05-09T23:48:33.789Z,10.33
2023-05-09T23:51:00.625Z,10.47
2023-05-09T23:53:27.403Z,10.30
2023-05-09T23:55:54.057Z,10.97
2023-05-09T23:58:21.156Z,10.87
